sensor_id;sensor_type;location;lat;lon;timestamp;pressure;altitude;pressure_sealevel;temperature;humidity
13434;BME280;6789;47.678;9.158;2022-12-15T00:04:56;95275.66;;;3.41;100.00
13434;BME280;6789;47.678;9.158;2022-12-15T00:10:07;95285.63;;;3.44;100.00
13434;BME280;6789;47.678;9.158;2022-12-15T00:15:17;95296.34;;;3.65;100.00
13434;BME280;6789;47.678;9.158;2022-12-15T00:20:27;95314.13;;;3.62;100.00
13434;BME280;6789;47.678;9.158;2022-12-15T00:25:38;95319.63;;;3.48;100.00
13434;BME280;6789;47.678;9.158;2022-12-15T00:31:02;95313.81;;;3.52;100.00
13434;BME280;6789;47.678;9.158;2022-12-15T00:36:13;95296.47;;;3.53;100.00
13434;BME280;6789;47.678;9.158;2022-12-15T00:41:24;95293.88;;;3.53;100.00
13434;BME280;6789;47.678;9.158;2022-12-15T00:46:15;95303.59;;;3.57;100.00
13434;BME280;6789;47.678;9.158;2022-12-15T00:51:27;95308.56;;;3.58;100.00
13434;BME280;6789;47.678;9.158;2022-12-15T00:56:37;95315.47;;;3.64;100.00
13434;BME280;6789;47.678;9.158;2022-12-15T01:01:48;95324.31;;;3.57;100.00
13434;BME280;6789;47.678;9.158;2022-12-15T01:06:58;95348.81;;;3.79;100.00
13434;BME280;6789;47.678;9.158;2022-12-15T01:12:08;95358.38;;;3.78;100.00
13434;BME280;6789;47.678;9.158;2022-12-15T01:17:19;95361.63;;;3.74;100.00
13434;BME280;6789;47.678;9.158;2022-12-15T01:22:30;95383.41;;;3.66;100.00
13434;BME280;6789;47.678;9.158;2022-12-15T01:27:22;95380.78;;;3.73;100.00
13434;BME280;6789;47.678;9.158;2022-12-15T01:32:13;95366.22;;;3.54;100.00
13434;BME280;6789;47.678;9.158;2022-12-15T01:37:05;95375.44;;;3.50;100.00
13434;BME280;6789;47.678;9.158;2022-12-15T01:41:58;95383.22;;;3.68;100.00
13434;BME280;6789;47.678;9.158;2022-12-15T01:46:53;95393.41;;;3.63;100.00
13434;BME280;6789;47.678;9.158;2022-12-15T01:51:53;95377.44;;;3.48;100.00
13434;BME280;6789;47.678;9.158;2022-12-15T01:56:53;95374.03;;;3.48;100.00
13434;BME280;6789;47.678;9.158;2022-12-15T02:01:45;95386.66;;;3.44;100.00
13434;BME280;6789;47.678;9.158;2022-12-15T02:06:40;95387.78;;;3.48;100.00
13434;BME280;6789;47.678;9.158;2022-12-15T02:17:14;95363.63;;;3.54;100.00
13434;BME280;6789;47.678;9.158;2022-12-15T02:27:55;95389.81;;;3.64;100.00
13434;BME280;6789;47.678;9.158;2022-12-15T02:33:25;95378.47;;;3.65;100.00
13434;BME280;6789;47.678;9.158;2022-12-15T02:38:36;95372.19;;;3.72;100.00
13434;BME280;6789;47.678;9.158;2022-12-15T02:43:32;95364.50;;;3.66;100.00
13434;BME280;6789;47.678;9.158;2022-12-15T02:54:30;95375.09;;;3.64;100.00
13434;BME280;6789;47.678;9.158;2022-12-15T03:04:45;95393.00;;;3.66;100.00
13434;BME280;6789;47.678;9.158;2022-12-15T03:09:37;95402.38;;;3.67;100.00
13434;BME280;6789;47.678;9.158;2022-12-15T03:14:29;95398.78;;;3.68;100.00
13434;BME280;6789;47.678;9.158;2022-12-15T03:19:21;95415.94;;;3.87;100.00
13434;BME280;6789;47.678;9.158;2022-12-15T03:24:12;95415.75;;;3.82;100.00
13434;BME280;6789;47.678;9.158;2022-12-15T03:29:04;95412.09;;;3.71;100.00
13434;BME280;6789;47.678;9.158;2022-12-15T03:33:56;95417.47;;;3.70;100.00
13434;BME280;6789;47.678;9.158;2022-12-15T03:38:48;95435.34;;;3.78;100.00
13434;BME280;6789;47.678;9.158;2022-12-15T03:43:41;95444.69;;;3.61;100.00
13434;BME280;6789;47.678;9.158;2022-12-15T03:48:32;95432.16;;;3.58;100.00
13434;BME280;6789;47.678;9.158;2022-12-15T03:53:24;95444.34;;;3.51;100.00
13434;BME280;6789;47.678;9.158;2022-12-15T03:58:16;95432.22;;;3.52;100.00
13434;BME280;6789;47.678;9.158;2022-12-15T04:03:09;95429.91;;;3.61;100.00
13434;BME280;6789;47.678;9.158;2022-12-15T04:08:01;95437.19;;;3.53;100.00
13434;BME280;6789;47.678;9.158;2022-12-15T04:13:06;95432.44;;;3.50;100.00
13434;BME280;6789;47.678;9.158;2022-12-15T04:18:01;95433.84;;;3.46;100.00
13434;BME280;6789;47.678;9.158;2022-12-15T04:22:53;95429.41;;;3.53;100.00
13434;BME280;6789;47.678;9.158;2022-12-15T04:27:45;95436.66;;;3.69;100.00
13434;BME280;6789;47.678;9.158;2022-12-15T04:32:56;95437.91;;;3.60;100.00
13434;BME280;6789;47.678;9.158;2022-12-15T04:38:06;95454.06;;;3.62;100.00
13434;BME280;6789;47.678;9.158;2022-12-15T04:43:17;95451.66;;;3.60;100.00
13434;BME280;6789;47.678;9.158;2022-12-15T04:48:27;95446.78;;;3.46;100.00
13434;BME280;6789;47.678;9.158;2022-12-15T04:53:38;95459.91;;;3.51;100.00
13434;BME280;6789;47.678;9.158;2022-12-15T04:58:48;95447.06;;;3.62;100.00
13434;BME280;6789;47.678;9.158;2022-12-15T05:03:59;95465.94;;;3.45;100.00
13434;BME280;6789;47.678;9.158;2022-12-15T05:09:23;95468.81;;;3.37;100.00
13434;BME280;6789;47.678;9.158;2022-12-15T05:14:47;95470.03;;;3.35;100.00
13434;BME280;6789;47.678;9.158;2022-12-15T05:20:12;95473.91;;;3.44;100.00
13434;BME280;6789;47.678;9.158;2022-12-15T05:25:37;95492.88;;;3.44;100.00
13434;BME280;6789;47.678;9.158;2022-12-15T05:30:49;95477.72;;;3.41;100.00
13434;BME280;6789;47.678;9.158;2022-12-15T05:36:01;95489.56;;;3.31;100.00
13434;BME280;6789;47.678;9.158;2022-12-15T05:41:07;95498.31;;;3.30;100.00
13434;BME280;6789;47.678;9.158;2022-12-15T05:46:13;95498.28;;;3.36;100.00
13434;BME280;6789;47.678;9.158;2022-12-15T05:51:10;95500.44;;;3.39;100.00
13434;BME280;6789;47.678;9.158;2022-12-15T05:56:10;95507.91;;;3.29;100.00
13434;BME280;6789;47.678;9.158;2022-12-15T06:01:07;95516.22;;;3.38;100.00
13434;BME280;6789;47.678;9.158;2022-12-15T06:06:01;95515.06;;;3.27;100.00
13434;BME280;6789;47.678;9.158;2022-12-15T06:11:01;95505.00;;;3.19;100.00
13434;BME280;6789;47.678;9.158;2022-12-15T06:16:00;95498.38;;;3.23;100.00
13434;BME280;6789;47.678;9.158;2022-12-15T06:21:13;95499.16;;;3.24;100.00
13434;BME280;6789;47.678;9.158;2022-12-15T06:26:32;95485.59;;;3.28;100.00
13434;BME280;6789;47.678;9.158;2022-12-15T06:31:40;95502.41;;;3.19;100.00
13434;BME280;6789;47.678;9.158;2022-12-15T06:36:46;95512.41;;;3.09;100.00
13434;BME280;6789;47.678;9.158;2022-12-15T06:41:42;95506.41;;;3.15;100.00
13434;BME280;6789;47.678;9.158;2022-12-15T06:46:48;95513.63;;;3.07;100.00
13434;BME280;6789;47.678;9.158;2022-12-15T06:51:54;95514.97;;;3.16;100.00
13434;BME280;6789;47.678;9.158;2022-12-15T06:57:00;95509.22;;;3.07;100.00
13434;BME280;6789;47.678;9.158;2022-12-15T07:02:01;95519.00;;;3.05;100.00
13434;BME280;6789;47.678;9.158;2022-12-15T07:07:09;95519.03;;;2.99;100.00
13434;BME280;6789;47.678;9.158;2022-12-15T07:12:15;95518.25;;;2.92;100.00
13434;BME280;6789;47.678;9.158;2022-12-15T07:17:07;95517.31;;;2.86;100.00
13434;BME280;6789;47.678;9.158;2022-12-15T07:22:02;95521.44;;;2.94;100.00
13434;BME280;6789;47.678;9.158;2022-12-15T07:26:55;95534.19;;;2.95;100.00
13434;BME280;6789;47.678;9.158;2022-12-15T07:31:47;95537.22;;;2.86;100.00
13434;BME280;6789;47.678;9.158;2022-12-15T07:36:44;95546.72;;;2.98;100.00
13434;BME280;6789;47.678;9.158;2022-12-15T07:41:42;95559.94;;;2.78;100.00
13434;BME280;6789;47.678;9.158;2022-12-15T07:46:36;95566.06;;;2.89;100.00
13434;BME280;6789;47.678;9.158;2022-12-15T07:51:31;95581.97;;;2.93;100.00
13434;BME280;6789;47.678;9.158;2022-12-15T07:56:41;95586.00;;;2.89;100.00
13434;BME280;6789;47.678;9.158;2022-12-15T08:01:47;95602.91;;;2.91;100.00
13434;BME280;6789;47.678;9.158;2022-12-15T08:06:54;95596.88;;;3.04;100.00
13434;BME280;6789;47.678;9.158;2022-12-15T08:11:48;95584.69;;;3.11;100.00
13434;BME280;6789;47.678;9.158;2022-12-15T08:16:43;95598.00;;;3.21;100.00
13434;BME280;6789;47.678;9.158;2022-12-15T08:21:49;95596.06;;;3.10;100.00
13434;BME280;6789;47.678;9.158;2022-12-15T08:26:43;95612.38;;;3.10;100.00
13434;BME280;6789;47.678;9.158;2022-12-15T08:31:49;95606.00;;;3.19;100.00
13434;BME280;6789;47.678;9.158;2022-12-15T08:36:54;95605.19;;;3.19;100.00
13434;BME280;6789;47.678;9.158;2022-12-15T08:41:50;95606.09;;;2.93;100.00
13434;BME280;6789;47.678;9.158;2022-12-15T08:46:56;95603.28;;;2.95;100.00
13434;BME280;6789;47.678;9.158;2022-12-15T08:51:57;95606.47;;;2.90;100.00
13434;BME280;6789;47.678;9.158;2022-12-15T08:57:04;95606.53;;;2.78;100.00
13434;BME280;6789;47.678;9.158;2022-12-15T09:02:11;95612.47;;;2.84;100.00
13434;BME280;6789;47.678;9.158;2022-12-15T09:07:18;95618.38;;;3.04;100.00
13434;BME280;6789;47.678;9.158;2022-12-15T09:12:15;95622.69;;;3.23;100.00
13434;BME280;6789;47.678;9.158;2022-12-15T09:17:21;95617.75;;;3.15;100.00
13434;BME280;6789;47.678;9.158;2022-12-15T09:22:27;95595.91;;;3.36;100.00
13434;BME280;6789;47.678;9.158;2022-12-15T09:27:33;95592.38;;;3.30;100.00
13434;BME280;6789;47.678;9.158;2022-12-15T09:32:39;95590.84;;;3.16;100.00
13434;BME280;6789;47.678;9.158;2022-12-15T09:37:46;95592.06;;;3.14;100.00
13434;BME280;6789;47.678;9.158;2022-12-15T09:42:53;95592.81;;;3.21;100.00
13434;BME280;6789;47.678;9.158;2022-12-15T09:48:11;95604.72;;;3.28;100.00
13434;BME280;6789;47.678;9.158;2022-12-15T09:53:12;95606.72;;;3.26;100.00
13434;BME280;6789;47.678;9.158;2022-12-15T10:04:18;95609.03;;;3.47;100.00
13434;BME280;6789;47.678;9.158;2022-12-15T10:09:25;95618.84;;;3.32;100.00
13434;BME280;6789;47.678;9.158;2022-12-15T10:19:46;95617.28;;;3.31;100.00
13434;BME280;6789;47.678;9.158;2022-12-15T10:24:49;95619.44;;;3.41;100.00
13434;BME280;6789;47.678;9.158;2022-12-15T10:30:21;95621.41;;;3.39;100.00
13434;BME280;6789;47.678;9.158;2022-12-15T10:35:33;95606.31;;;3.29;100.00
13434;BME280;6789;47.678;9.158;2022-12-15T10:40:52;95613.56;;;3.14;100.00
13434;BME280;6789;47.678;9.158;2022-12-15T10:46:18;95612.69;;;3.33;100.00
13434;BME280;6789;47.678;9.158;2022-12-15T10:51:55;95580.66;;;3.21;100.00
13434;BME280;6789;47.678;9.158;2022-12-15T11:07:49;95536.31;;;3.11;100.00
13434;BME280;6789;47.678;9.158;2022-12-15T11:13:19;95536.13;;;3.06;100.00
13434;BME280;6789;47.678;9.158;2022-12-15T11:18:44;95525.03;;;2.99;100.00
13434;BME280;6789;47.678;9.158;2022-12-15T11:30:25;95515.66;;;2.98;100.00
13434;BME280;6789;47.678;9.158;2022-12-15T11:41:57;95505.81;;;3.44;100.00
13434;BME280;6789;47.678;9.158;2022-12-15T11:47:38;95502.47;;;3.61;100.00
13434;BME280;6789;47.678;9.158;2022-12-15T12:09:29;95472.63;;;3.35;100.00
13434;BME280;6789;47.678;9.158;2022-12-15T12:20:20;95465.25;;;3.01;100.00
13434;BME280;6789;47.678;9.158;2022-12-15T12:25:33;95446.31;;;3.07;100.00
13434;BME280;6789;47.678;9.158;2022-12-15T12:30:46;95453.91;;;3.26;100.00
13434;BME280;6789;47.678;9.158;2022-12-15T12:35:56;95451.31;;;3.26;100.00
13434;BME280;6789;47.678;9.158;2022-12-15T12:46:44;95464.22;;;3.08;100.00
13434;BME280;6789;47.678;9.158;2022-12-15T12:51:55;95463.53;;;2.88;100.00
13434;BME280;6789;47.678;9.158;2022-12-15T12:56:50;95451.88;;;3.04;100.00
13434;BME280;6789;47.678;9.158;2022-12-15T13:01:44;95434.78;;;3.03;100.00
13434;BME280;6789;47.678;9.158;2022-12-15T13:16:45;95439.75;;;2.67;100.00
13434;BME280;6789;47.678;9.158;2022-12-15T13:21:59;95431.38;;;2.72;100.00
13434;BME280;6789;47.678;9.158;2022-12-15T13:27:15;95408.06;;;2.47;100.00
13434;BME280;6789;47.678;9.158;2022-12-15T13:37:48;95380.69;;;2.27;100.00
13434;BME280;6789;47.678;9.158;2022-12-15T13:42:44;95390.84;;;2.22;100.00
13434;BME280;6789;47.678;9.158;2022-12-15T13:47:54;95382.97;;;2.11;100.00
13434;BME280;6789;47.678;9.158;2022-12-15T13:52:51;95389.13;;;2.10;100.00
13434;BME280;6789;47.678;9.158;2022-12-15T13:58:38;95372.59;;;2.17;100.00
13434;BME280;6789;47.678;9.158;2022-12-15T14:03:32;95362.78;;;2.32;100.00
13434;BME280;6789;47.678;9.158;2022-12-15T14:08:28;95351.69;;;2.25;100.00
13434;BME280;6789;47.678;9.158;2022-12-15T14:13:32;95372.75;;;2.22;100.00
13434;BME280;6789;47.678;9.158;2022-12-15T14:18:42;95375.16;;;2.17;100.00
13434;BME280;6789;47.678;9.158;2022-12-15T14:23:44;95371.53;;;2.31;100.00
13434;BME280;6789;47.678;9.158;2022-12-15T14:29:02;95371.41;;;2.13;100.00
13434;BME280;6789;47.678;9.158;2022-12-15T14:34:23;95373.56;;;2.16;100.00
13434;BME280;6789;47.678;9.158;2022-12-15T14:39:41;95361.25;;;2.11;100.00
13434;BME280;6789;47.678;9.158;2022-12-15T14:44:49;95351.31;;;2.15;100.00
13434;BME280;6789;47.678;9.158;2022-12-15T14:50:08;95340.41;;;2.07;100.00
13434;BME280;6789;47.678;9.158;2022-12-15T14:55:36;95356.47;;;2.15;100.00
13434;BME280;6789;47.678;9.158;2022-12-15T15:00:51;95365.66;;;2.11;100.00
13434;BME280;6789;47.678;9.158;2022-12-15T15:06:03;95360.31;;;2.00;100.00
13434;BME280;6789;47.678;9.158;2022-12-15T15:11:23;95354.38;;;1.99;100.00
13434;BME280;6789;47.678;9.158;2022-12-15T15:16:31;95349.03;;;1.94;100.00
13434;BME280;6789;47.678;9.158;2022-12-15T15:21:39;95354.25;;;1.81;100.00
13434;BME280;6789;47.678;9.158;2022-12-15T15:27:36;95348.84;;;1.89;100.00
13434;BME280;6789;47.678;9.158;2022-12-15T15:33:08;95333.75;;;1.86;100.00
13434;BME280;6789;47.678;9.158;2022-12-15T15:38:24;95325.56;;;1.89;100.00
13434;BME280;6789;47.678;9.158;2022-12-15T15:43:24;95328.41;;;1.81;100.00
13434;BME280;6789;47.678;9.158;2022-12-15T15:48:27;95328.25;;;1.76;100.00
13434;BME280;6789;47.678;9.158;2022-12-15T15:53:23;95332.84;;;1.61;100.00
13434;BME280;6789;47.678;9.158;2022-12-15T15:58:29;95347.19;;;1.51;100.00
13434;BME280;6789;47.678;9.158;2022-12-15T16:03:23;95359.69;;;1.54;100.00
13434;BME280;6789;47.678;9.158;2022-12-15T16:08:35;95366.88;;;1.45;100.00
13434;BME280;6789;47.678;9.158;2022-12-15T16:13:28;95360.47;;;1.61;100.00
13434;BME280;6789;47.678;9.158;2022-12-15T16:18:34;95363.03;;;1.67;100.00
13434;BME280;6789;47.678;9.158;2022-12-15T16:23:45;95349.94;;;1.62;100.00
13434;BME280;6789;47.678;9.158;2022-12-15T16:28:41;95345.16;;;1.66;100.00
13434;BME280;6789;47.678;9.158;2022-12-15T16:33:47;95348.13;;;1.69;100.00
13434;BME280;6789;47.678;9.158;2022-12-15T16:38:43;95348.78;;;1.52;100.00
13434;BME280;6789;47.678;9.158;2022-12-15T16:43:50;95332.44;;;1.64;100.00
13434;BME280;6789;47.678;9.158;2022-12-15T16:48:56;95317.00;;;1.51;100.00
13434;BME280;6789;47.678;9.158;2022-12-15T16:54:02;95321.34;;;1.57;100.00
13434;BME280;6789;47.678;9.158;2022-12-15T16:59:17;95312.59;;;1.58;100.00
13434;BME280;6789;47.678;9.158;2022-12-15T17:04:28;95333.97;;;1.78;100.00
13434;BME280;6789;47.678;9.158;2022-12-15T17:09:28;95339.41;;;1.70;100.00
13434;BME280;6789;47.678;9.158;2022-12-15T17:14:21;95323.50;;;1.60;100.00
13434;BME280;6789;47.678;9.158;2022-12-15T17:19:22;95320.31;;;1.65;100.00
13434;BME280;6789;47.678;9.158;2022-12-15T17:24:18;95317.81;;;1.45;100.00
13434;BME280;6789;47.678;9.158;2022-12-15T17:29:20;95316.22;;;1.44;100.00
13434;BME280;6789;47.678;9.158;2022-12-15T17:34:31;95318.16;;;1.55;100.00
13434;BME280;6789;47.678;9.158;2022-12-15T17:39:39;95304.28;;;1.50;100.00
13434;BME280;6789;47.678;9.158;2022-12-15T17:44:47;95299.09;;;1.56;100.00
13434;BME280;6789;47.678;9.158;2022-12-15T17:49:43;95286.16;;;1.63;100.00
13434;BME280;6789;47.678;9.158;2022-12-15T17:54:35;95286.19;;;1.50;100.00
13434;BME280;6789;47.678;9.158;2022-12-15T17:59:29;95269.97;;;1.37;100.00
13434;BME280;6789;47.678;9.158;2022-12-15T18:04:24;95254.47;;;1.37;100.00
13434;BME280;6789;47.678;9.158;2022-12-15T18:09:18;95252.72;;;1.24;100.00
13434;BME280;6789;47.678;9.158;2022-12-15T18:14:17;95242.03;;;1.21;100.00
13434;BME280;6789;47.678;9.158;2022-12-15T18:19:11;95234.03;;;1.29;100.00
13434;BME280;6789;47.678;9.158;2022-12-15T18:24:17;95234.47;;;1.26;100.00
13434;BME280;6789;47.678;9.158;2022-12-15T18:29:15;95219.75;;;1.26;100.00
13434;BME280;6789;47.678;9.158;2022-12-15T18:34:13;95214.25;;;1.16;100.00
13434;BME280;6789;47.678;9.158;2022-12-15T18:39:21;95208.28;;;1.16;100.00
13434;BME280;6789;47.678;9.158;2022-12-15T18:44:31;95207.28;;;1.17;100.00
13434;BME280;6789;47.678;9.158;2022-12-15T18:50:25;95217.78;;;1.22;100.00
13434;BME280;6789;47.678;9.158;2022-12-15T18:55:21;95211.63;;;1.23;100.00
13434;BME280;6789;47.678;9.158;2022-12-15T19:05:05;95239.25;;;1.16;100.00
13434;BME280;6789;47.678;9.158;2022-12-15T19:10:13;95234.03;;;1.29;100.00
13434;BME280;6789;47.678;9.158;2022-12-15T19:15:20;95242.25;;;1.13;100.00
13434;BME280;6789;47.678;9.158;2022-12-15T19:20:18;95243.41;;;1.23;100.00
13434;BME280;6789;47.678;9.158;2022-12-15T19:25:33;95238.84;;;1.19;100.00
13434;BME280;6789;47.678;9.158;2022-12-15T19:30:32;95237.44;;;1.29;100.00
13434;BME280;6789;47.678;9.158;2022-12-15T19:35:32;95238.47;;;1.09;100.00
13434;BME280;6789;47.678;9.158;2022-12-15T19:40:29;95230.13;;;1.13;100.00
13434;BME280;6789;47.678;9.158;2022-12-15T19:45:25;95237.44;;;1.23;100.00
13434;BME280;6789;47.678;9.158;2022-12-15T19:50:30;95238.69;;;1.14;100.00
13434;BME280;6789;47.678;9.158;2022-12-15T19:55:30;95233.34;;;1.02;100.00
13434;BME280;6789;47.678;9.158;2022-12-15T20:00:24;95227.00;;;0.98;100.00
13434;BME280;6789;47.678;9.158;2022-12-15T20:05:20;95228.41;;;0.88;100.00
13434;BME280;6789;47.678;9.158;2022-12-15T20:10:25;95215.91;;;0.91;100.00
13434;BME280;6789;47.678;9.158;2022-12-15T20:15:24;95207.97;;;0.93;100.00
13434;BME280;6789;47.678;9.158;2022-12-15T20:20:18;95210.97;;;0.90;100.00
13434;BME280;6789;47.678;9.158;2022-12-15T20:25:17;95212.72;;;0.96;100.00
13434;BME280;6789;47.678;9.158;2022-12-15T20:30:28;95207.34;;;0.97;100.00
13434;BME280;6789;47.678;9.158;2022-12-15T20:35:37;95204.38;;;0.94;100.00
13434;BME280;6789;47.678;9.158;2022-12-15T20:40:29;95210.28;;;1.07;100.00
13434;BME280;6789;47.678;9.158;2022-12-15T20:45:25;95213.72;;;0.88;100.00
13434;BME280;6789;47.678;9.158;2022-12-15T20:50:35;95211.09;;;1.08;100.00
13434;BME280;6789;47.678;9.158;2022-12-15T20:55:28;95211.91;;;1.02;100.00
13434;BME280;6789;47.678;9.158;2022-12-15T21:00:21;95219.19;;;1.18;100.00
13434;BME280;6789;47.678;9.158;2022-12-15T21:05:20;95215.44;;;1.14;100.00
13434;BME280;6789;47.678;9.158;2022-12-15T21:10:15;95216.16;;;1.34;100.00
13434;BME280;6789;47.678;9.158;2022-12-15T21:15:19;95218.94;;;1.32;100.00
13434;BME280;6789;47.678;9.158;2022-12-15T21:20:12;95228.44;;;1.44;100.00
13434;BME280;6789;47.678;9.158;2022-12-15T21:25:24;95243.09;;;1.50;100.00
13434;BME280;6789;47.678;9.158;2022-12-15T21:30:21;95246.28;;;1.46;100.00
13434;BME280;6789;47.678;9.158;2022-12-15T21:35:27;95243.53;;;1.41;100.00
13434;BME280;6789;47.678;9.158;2022-12-15T21:40:25;95243.72;;;1.46;100.00
13434;BME280;6789;47.678;9.158;2022-12-15T21:45:22;95247.06;;;1.53;100.00
13434;BME280;6789;47.678;9.158;2022-12-15T21:50:17;95236.13;;;1.57;100.00
13434;BME280;6789;47.678;9.158;2022-12-15T21:55:24;95238.88;;;1.62;100.00
13434;BME280;6789;47.678;9.158;2022-12-15T22:00:19;95253.19;;;1.58;100.00
13434;BME280;6789;47.678;9.158;2022-12-15T22:05:27;95259.97;;;1.53;100.00
13434;BME280;6789;47.678;9.158;2022-12-15T22:10:23;95266.47;;;1.62;100.00
13434;BME280;6789;47.678;9.158;2022-12-15T22:15:19;95265.28;;;1.64;100.00
13434;BME280;6789;47.678;9.158;2022-12-15T22:20:21;95279.59;;;1.60;100.00
13434;BME280;6789;47.678;9.158;2022-12-15T22:25:23;95281.19;;;1.61;100.00
13434;BME280;6789;47.678;9.158;2022-12-15T22:30:23;95274.81;;;1.70;100.00
13434;BME280;6789;47.678;9.158;2022-12-15T22:35:25;95277.13;;;1.78;100.00
13434;BME280;6789;47.678;9.158;2022-12-15T22:40:18;95277.31;;;1.83;100.00
13434;BME280;6789;47.678;9.158;2022-12-15T22:45:20;95276.53;;;1.83;100.00
13434;BME280;6789;47.678;9.158;2022-12-15T22:50:22;95285.53;;;1.67;100.00
13434;BME280;6789;47.678;9.158;2022-12-15T22:55:18;95285.53;;;1.67;100.00
13434;BME280;6789;47.678;9.158;2022-12-15T23:00:11;95274.38;;;1.73;100.00
13434;BME280;6789;47.678;9.158;2022-12-15T23:05:06;95285.53;;;1.67;100.00
13434;BME280;6789;47.678;9.158;2022-12-15T23:09:58;95292.31;;;1.62;100.00
13434;BME280;6789;47.678;9.158;2022-12-15T23:15:10;95301.63;;;1.69;100.00
13434;BME280;6789;47.678;9.158;2022-12-15T23:20:20;95301.59;;;1.82;100.00
13434;BME280;6789;47.678;9.158;2022-12-15T23:25:12;95311.38;;;1.67;100.00
13434;BME280;6789;47.678;9.158;2022-12-15T23:30:05;95309.34;;;1.82;100.00
13434;BME280;6789;47.678;9.158;2022-12-15T23:34:57;95313.72;;;1.75;100.00
13434;BME280;6789;47.678;9.158;2022-12-15T23:39:49;95310.31;;;1.81;100.00
13434;BME280;6789;47.678;9.158;2022-12-15T23:44:42;95287.94;;;1.62;100.00
13434;BME280;6789;47.678;9.158;2022-12-15T23:49:34;95293.50;;;1.59;100.00
13434;BME280;6789;47.678;9.158;2022-12-15T23:54:26;95291.50;;;1.68;100.00
13434;BME280;6789;47.678;9.158;2022-12-15T23:59:18;95294.06;;;1.68;100.00
